createdAt,value
2018-12-27T00:00:56.401Z,24.57
2018-12-27T00:03:36.329Z,25.52
2018-12-27T00:06:16.466Z,25.62
2018-12-27T00:08:56.742Z,24.18
2018-12-27T00:11:36.645Z,25.43
2018-12-27T00:14:16.835Z,26.07
2018-12-27T00:16:56.946Z,24.63
2018-12-27T00:19:37.241Z,23.30
2018-12-27T00:22:17.224Z,23.92
2018-12-27T00:24:57.337Z,26.35
2018-12-27T00:27:37.059Z,26.42
2018-12-27T00:30:17.146Z,27.00
2018-12-27T00:33:03.147Z,26.35
2018-12-27T00:35:39.301Z,23.77
2018-12-27T00:38:19.201Z,27.05
2018-12-27T00:40:59.461Z,26.70
2018-12-27T00:43:39.629Z,24.95
2018-12-27T00:46:19.693Z,25.80
2018-12-27T00:48:59.434Z,25.30
2018-12-27T00:51:39.580Z,26.85
2018-12-27T00:54:19.452Z,24.35
2018-12-27T00:56:59.729Z,24.30
2018-12-27T00:59:39.611Z,25.62
2018-12-27T01:02:19.752Z,24.85
2018-12-27T01:04:59.680Z,26.27
2018-12-27T01:07:39.717Z,24.55
2018-12-27T01:10:19.509Z,25.55
2018-12-27T01:12:59.585Z,24.50
2018-12-27T01:15:39.942Z,25.12
2018-12-27T01:18:20.025Z,24.52
2018-12-27T01:21:00.170Z,26.20
2018-12-27T01:23:40.372Z,24.50
2018-12-27T01:26:20.293Z,24.60
2018-12-27T01:29:00.777Z,27.52
2018-12-27T01:31:40.617Z,26.05
2018-12-27T01:34:20.762Z,25.15
2018-12-27T01:37:00.681Z,26.50
2018-12-27T01:39:40.710Z,22.85
2018-12-27T01:42:20.613Z,25.15
2018-12-27T01:45:00.728Z,25.17
2018-12-27T01:47:40.870Z,24.35
2018-12-27T01:50:21.118Z,28.65
2018-12-27T01:53:01.373Z,24.15
2018-12-27T01:55:41.597Z,24.12
2018-12-27T01:58:21.517Z,25.17
2018-12-27T02:01:01.778Z,26.35
2018-12-27T02:03:41.625Z,26.20
2018-12-27T02:06:22.003Z,25.27
2018-12-27T02:09:02.005Z,25.05
2018-12-27T02:11:42.105Z,24.57
2018-12-27T02:14:21.966Z,26.40
2018-12-27T02:17:01.980Z,24.70
2018-12-27T02:19:42.215Z,25.08
2018-12-27T02:22:22.309Z,24.75
2018-12-27T02:25:02.492Z,27.32
2018-12-27T02:27:42.410Z,24.43
2018-12-27T02:30:22.571Z,25.52
2018-12-27T02:33:02.404Z,23.95
2018-12-27T02:35:42.610Z,26.52
2018-12-27T02:38:22.577Z,24.23
2018-12-27T02:41:02.730Z,25.55
2018-12-27T02:43:42.498Z,24.23
2018-12-27T02:46:22.877Z,24.98
2018-12-27T02:49:03.050Z,24.05
2018-12-27T02:51:43.185Z,24.32
2018-12-27T02:54:23.117Z,24.52
2018-12-27T02:57:03.124Z,23.73
2018-12-27T02:59:43.363Z,24.50
2018-12-27T03:02:23.585Z,24.37
2018-12-27T03:05:03.587Z,23.87
2018-12-27T03:07:43.485Z,26.37
2018-12-27T03:10:23.257Z,25.25
2018-12-27T03:13:03.441Z,23.98
2018-12-27T03:15:43.521Z,24.52
2018-12-27T03:18:23.497Z,24.00
2018-12-27T03:21:03.382Z,24.25
2018-12-27T03:23:43.413Z,23.22
2018-12-27T03:26:23.429Z,23.90
2018-12-27T03:29:03.696Z,23.60
2018-12-27T03:31:43.522Z,25.25
2018-12-27T03:34:23.554Z,24.18
2018-12-27T03:37:03.565Z,25.35
2018-12-27T03:39:43.572Z,24.05
2018-12-27T03:42:23.548Z,22.42
2018-12-27T03:45:03.680Z,23.90
2018-12-27T03:47:43.649Z,23.57
2018-12-27T03:50:23.918Z,25.45
2018-12-27T03:53:03.853Z,24.45
2018-12-27T03:55:43.994Z,23.38
2018-12-27T03:58:23.908Z,23.75
2018-12-27T04:01:03.857Z,24.87
2018-12-27T04:03:43.762Z,24.30
2018-12-27T04:06:23.935Z,23.20
2018-12-27T04:09:04.097Z,22.15
2018-12-27T04:11:44.033Z,21.97
2018-12-27T04:14:23.880Z,23.67
2018-12-27T04:17:04.013Z,22.70
2018-12-27T04:19:43.861Z,22.70
2018-12-27T04:22:24.208Z,24.00
2018-12-27T04:25:04.058Z,23.40
2018-12-27T04:27:44.351Z,26.10
2018-12-27T04:30:24.230Z,24.27
2018-12-27T04:36:26.640Z,23.02
2018-12-27T04:39:06.550Z,22.00
2018-12-27T04:41:46.621Z,22.70
2018-12-27T04:44:26.764Z,22.65
2018-12-27T04:47:06.780Z,21.93
2018-12-27T04:49:46.977Z,21.20
2018-12-27T04:52:26.918Z,23.95
2018-12-27T04:55:07.277Z,21.00
2018-12-27T04:57:47.252Z,22.27
2018-12-27T05:00:27.344Z,22.67
2018-12-27T05:03:07.433Z,22.07
2018-12-27T05:05:47.510Z,21.42
2018-12-27T05:08:27.401Z,22.07
2018-12-27T05:11:07.316Z,22.60
2018-12-27T05:13:47.257Z,21.77
2018-12-27T05:16:27.508Z,22.00
2018-12-27T05:19:07.771Z,19.87
2018-12-27T05:21:47.693Z,20.12
2018-12-27T05:24:27.888Z,19.55
2018-12-27T05:27:07.993Z,19.67
2018-12-27T05:29:47.985Z,20.45
2018-12-27T05:32:28.119Z,20.27
2018-12-27T05:35:08.405Z,21.20
2018-12-27T05:37:48.458Z,20.92
2018-12-27T05:40:28.352Z,22.50
2018-12-27T05:43:08.117Z,21.65
2018-12-27T05:45:48.112Z,20.70
2018-12-27T05:48:28.352Z,22.55
2018-12-27T05:51:08.276Z,20.75
2018-12-27T05:53:48.335Z,19.37
2018-12-27T05:56:28.344Z,21.27
2018-12-27T05:59:08.300Z,20.23
2018-12-27T06:01:48.588Z,21.23
2018-12-27T06:04:33.799Z,19.70
2018-12-27T06:07:10.783Z,20.25
2018-12-27T06:09:50.669Z,20.00
2018-12-27T06:12:30.721Z,22.22
2018-12-27T06:15:10.682Z,22.05
2018-12-27T06:17:50.712Z,21.12
2018-12-27T06:20:30.733Z,21.27
2018-12-27T06:23:10.889Z,21.90
2018-12-27T06:25:50.712Z,22.30
2018-12-27T06:28:30.872Z,20.75
2018-12-27T06:31:10.733Z,20.17
2018-12-27T06:33:50.838Z,21.68
2018-12-27T06:36:30.809Z,21.73
2018-12-27T06:39:10.988Z,21.80
2018-12-27T06:41:50.761Z,19.17
2018-12-27T06:44:30.664Z,21.37
2018-12-27T06:47:10.784Z,20.82
2018-12-27T06:49:50.774Z,19.37
2018-12-27T06:52:30.788Z,19.85
2018-12-27T06:55:10.956Z,20.37
2018-12-27T06:57:50.873Z,21.68
2018-12-27T07:00:30.985Z,20.68
2018-12-27T07:03:10.833Z,21.82
2018-12-27T07:05:51.113Z,19.90
2018-12-27T07:08:31.212Z,20.17
2018-12-27T07:11:11.162Z,23.20
2018-12-27T07:13:51.309Z,21.68
2018-12-27T07:16:31.286Z,23.57
2018-12-27T07:19:11.441Z,21.93
2018-12-27T07:21:51.574Z,23.45
2018-12-27T07:24:31.678Z,23.65
2018-12-27T07:27:11.352Z,23.55
2018-12-27T07:29:51.525Z,23.90
2018-12-27T07:32:31.495Z,23.50
2018-12-27T07:35:11.741Z,25.60
2018-12-27T07:37:51.688Z,22.30
2018-12-27T07:40:31.572Z,22.27
2018-12-27T07:43:11.612Z,22.50
2018-12-27T07:45:51.604Z,20.23
2018-12-27T07:48:31.581Z,20.65
2018-12-27T07:51:11.581Z,20.85
2018-12-27T07:53:51.672Z,18.80
2018-12-27T07:56:31.708Z,21.15
2018-12-27T07:59:11.765Z,20.90
2018-12-27T08:01:51.900Z,21.35
2018-12-27T08:04:32.121Z,21.23
2018-12-27T08:07:12.045Z,21.20
2018-12-27T08:09:51.952Z,22.73
2018-12-27T08:12:32.181Z,20.08
2018-12-27T08:15:11.890Z,20.77
2018-12-27T08:17:51.926Z,21.55
2018-12-27T08:20:32.047Z,24.20
2018-12-27T08:23:11.901Z,22.85
2018-12-27T08:25:51.962Z,22.58
2018-12-27T08:28:31.760Z,22.75
2018-12-27T08:31:11.980Z,22.65
2018-12-27T08:33:52.198Z,23.00
2018-12-27T08:36:32.379Z,20.97
2018-12-27T08:39:12.089Z,21.15
2018-12-27T08:41:52.052Z,20.97
2018-12-27T08:44:31.929Z,20.57
2018-12-27T08:47:12.455Z,20.80
2018-12-27T08:49:52.075Z,20.88
2018-12-27T08:52:32.201Z,21.77
2018-12-27T08:55:12.070Z,22.55
2018-12-27T08:57:52.213Z,20.75
2018-12-27T09:00:32.259Z,21.73
2018-12-27T09:03:12.475Z,22.55
2018-12-27T09:05:52.352Z,22.13
2018-12-27T09:08:32.500Z,22.32
2018-12-27T09:11:12.703Z,23.45
2018-12-27T09:13:55.815Z,22.15
2018-12-27T09:16:37.312Z,22.22
2018-12-27T09:19:16.780Z,24.37
2018-12-27T09:21:56.785Z,20.75
2018-12-27T09:24:36.793Z,21.37
2018-12-27T09:27:16.545Z,20.97
2018-12-27T09:29:56.646Z,20.72
2018-12-27T09:32:36.630Z,20.48
2018-12-27T09:35:16.816Z,22.17
2018-12-27T09:37:56.692Z,20.08
2018-12-27T09:40:36.817Z,19.67
2018-12-27T09:43:16.727Z,20.35
2018-12-27T09:45:56.755Z,20.68
2018-12-27T09:48:36.894Z,20.85
2018-12-27T09:51:16.815Z,19.23
2018-12-27T09:53:56.731Z,20.08
2018-12-27T09:56:36.927Z,22.10
2018-12-27T09:59:16.783Z,20.90
2018-12-27T10:01:57.037Z,20.57
2018-12-27T10:04:37.025Z,21.62
2018-12-27T10:07:16.981Z,21.23
2018-12-27T10:09:57.250Z,22.67
2018-12-27T10:12:37.178Z,20.65
2018-12-27T10:15:17.118Z,21.15
2018-12-27T10:17:57.081Z,21.27
2018-12-27T10:20:37.106Z,21.15
2018-12-27T10:23:16.992Z,22.17
2018-12-27T10:25:57.280Z,21.02
2018-12-27T10:28:37.517Z,21.30
2018-12-27T10:31:17.692Z,20.17
2018-12-27T10:33:57.573Z,23.25
2018-12-27T10:36:37.860Z,20.15
2018-12-27T10:39:17.550Z,21.40
2018-12-27T10:41:57.490Z,21.82
2018-12-27T10:44:37.423Z,19.60
2018-12-27T10:47:17.556Z,19.60
2018-12-27T10:49:57.364Z,19.82
2018-12-27T10:52:37.694Z,20.62
2018-12-27T10:55:17.537Z,19.32
2018-12-27T10:57:57.788Z,19.42
2018-12-27T11:00:37.729Z,19.12
2018-12-27T11:03:17.774Z,18.73
2018-12-27T11:05:57.873Z,19.37
2018-12-27T11:08:38.206Z,18.82
2018-12-27T11:11:18.332Z,20.23
2018-12-27T11:13:58.510Z,20.05
2018-12-27T11:16:38.545Z,20.62
2018-12-27T11:19:18.577Z,20.90
2018-12-27T11:21:58.671Z,21.23
2018-12-27T11:24:38.972Z,21.93
2018-12-27T11:27:19.062Z,20.75
2018-12-27T11:29:59.161Z,21.70
2018-12-27T11:32:39.228Z,19.90
2018-12-27T11:35:19.293Z,21.70
2018-12-27T11:37:59.356Z,22.22
2018-12-27T11:40:39.619Z,22.17
2018-12-27T11:43:19.553Z,22.27
2018-12-27T11:45:59.821Z,20.88
2018-12-27T11:48:39.999Z,20.05
2018-12-27T11:51:20.021Z,21.15
2018-12-27T11:53:59.908Z,20.35
2018-12-27T11:56:40.207Z,19.65
2018-12-27T11:59:19.971Z,22.17
2018-12-27T12:02:00.004Z,19.87
2018-12-27T12:04:40.044Z,19.45
2018-12-27T12:07:19.865Z,21.40
2018-12-27T12:10:00.178Z,20.70
2018-12-27T12:12:41.020Z,20.02
2018-12-27T12:15:21.060Z,21.85
2018-12-27T12:18:00.916Z,20.60
2018-12-27T12:20:41.231Z,20.75
2018-12-27T12:23:21.271Z,21.15
2018-12-27T12:26:01.510Z,21.45
2018-12-27T12:28:41.514Z,22.40
2018-12-27T12:31:21.906Z,21.27
2018-12-27T12:34:01.720Z,21.90
2018-12-27T12:36:41.774Z,20.35
2018-12-27T12:39:21.740Z,22.50
2018-12-27T12:42:01.965Z,20.77
2018-12-27T12:44:41.867Z,20.20
2018-12-27T12:47:22.094Z,19.52
2018-12-27T12:50:02.185Z,21.35
2018-12-27T12:52:42.458Z,21.25
2018-12-27T12:55:22.471Z,20.30
2018-12-27T12:58:02.573Z,20.82
2018-12-27T13:00:42.534Z,20.95
2018-12-27T13:03:22.564Z,19.30
2018-12-27T13:06:02.738Z,20.68
2018-12-27T13:08:42.908Z,19.37
2018-12-27T13:11:22.828Z,22.13
2018-12-27T13:14:03.177Z,19.20
2018-12-27T13:16:43.161Z,21.90
2018-12-27T13:19:23.243Z,23.50
2018-12-27T13:22:03.091Z,22.45
2018-12-27T13:24:43.292Z,24.15
2018-12-27T13:27:23.377Z,24.82
2018-12-27T13:30:03.384Z,23.22
2018-12-27T13:32:43.611Z,23.62
2018-12-27T13:35:23.658Z,22.80
2018-12-27T13:38:03.660Z,23.32
2018-12-27T13:40:43.840Z,22.52
2018-12-27T13:43:23.730Z,24.63
2018-12-27T13:46:03.874Z,22.95
2018-12-27T13:48:43.914Z,22.48
2018-12-27T13:51:23.988Z,24.82
2018-12-27T13:54:04.047Z,25.75
2018-12-27T13:56:44.097Z,23.85
2018-12-27T13:59:24.209Z,24.82
2018-12-27T14:02:03.952Z,25.05
2018-12-27T14:04:43.945Z,27.35
2018-12-27T14:07:23.836Z,26.17
2018-12-27T14:10:03.793Z,25.97
2018-12-27T14:12:43.899Z,25.10
2018-12-27T14:15:23.982Z,25.10
2018-12-27T14:18:03.890Z,27.17
2018-12-27T14:20:43.951Z,25.68
2018-12-27T14:23:24.136Z,26.57
2018-12-27T14:26:04.108Z,25.80
2018-12-27T14:34:28.737Z,28.62
2018-12-27T14:37:08.757Z,26.27
2018-12-27T14:39:48.604Z,25.90
2018-12-27T14:42:28.709Z,25.02
2018-12-27T14:45:08.693Z,25.25
2018-12-27T14:47:48.933Z,27.05
2018-12-27T14:50:28.917Z,25.85
2018-12-27T14:53:08.806Z,25.77
2018-12-27T14:55:48.866Z,25.90
2018-12-27T14:58:28.769Z,24.85
2018-12-27T15:01:08.724Z,25.30
2018-12-27T15:03:48.690Z,26.42
2018-12-27T15:06:28.836Z,24.80
2018-12-27T15:09:08.671Z,25.27
2018-12-27T15:11:48.768Z,25.85
2018-12-27T15:14:28.940Z,25.00
2018-12-27T15:17:08.790Z,24.57
2018-12-27T15:19:48.936Z,24.77
2018-12-27T15:22:28.849Z,25.85
2018-12-27T15:25:08.946Z,25.35
2018-12-27T15:27:48.797Z,24.77
2018-12-27T15:30:28.796Z,23.65
2018-12-27T15:33:08.824Z,25.10
2018-12-27T15:35:49.350Z,25.27
2018-12-27T15:38:29.155Z,26.20
2018-12-27T15:41:09.279Z,26.27
2018-12-27T15:43:49.288Z,25.08
2018-12-27T15:46:29.517Z,24.27
2018-12-27T15:49:09.637Z,24.45
2018-12-27T15:51:49.744Z,23.35
2018-12-27T15:54:29.722Z,23.00
2018-12-27T15:57:09.789Z,23.98
2018-12-27T15:59:49.676Z,23.65
2018-12-27T16:02:29.794Z,22.48
2018-12-27T16:05:12.035Z,22.27
2018-12-27T16:07:51.720Z,23.90
2018-12-27T16:10:31.822Z,24.90
2018-12-27T16:13:11.730Z,23.05
2018-12-27T16:15:51.777Z,22.52
2018-12-27T16:18:31.741Z,24.12
2018-12-27T16:21:12.150Z,23.25
2018-12-27T16:23:52.101Z,22.45
2018-12-27T16:26:32.422Z,23.27
2018-12-27T16:29:12.077Z,22.17
2018-12-27T16:31:52.318Z,23.25
2018-12-27T16:34:32.447Z,22.70
2018-12-27T16:37:12.239Z,22.82
2018-12-27T16:39:52.186Z,22.50
2018-12-27T16:42:32.279Z,35.70
2018-12-27T16:45:12.413Z,26.07
2018-12-27T16:47:52.535Z,26.40
2018-12-27T16:50:32.667Z,25.45
2018-12-27T16:53:12.954Z,22.35
2018-12-27T16:55:52.790Z,24.25
2018-12-27T16:58:32.603Z,23.85
2018-12-27T17:01:12.410Z,23.80
2018-12-27T17:03:52.419Z,25.12
2018-12-27T17:06:32.575Z,22.80
2018-12-27T17:09:12.591Z,24.82
2018-12-27T17:11:52.579Z,27.25
2018-12-27T17:14:32.635Z,27.73
2018-12-27T17:17:12.601Z,27.42
2018-12-27T17:19:52.926Z,28.00
2018-12-27T17:22:32.834Z,27.20
2018-12-27T17:25:12.919Z,26.17
2018-12-27T17:27:52.828Z,28.05
2018-12-27T17:30:33.073Z,25.30
2018-12-27T17:33:12.914Z,24.20
2018-12-27T17:35:52.798Z,24.50
2018-12-27T17:38:32.557Z,23.77
2018-12-27T17:41:12.847Z,22.73
2018-12-27T17:43:52.986Z,24.32
2018-12-27T17:46:33.032Z,24.32
2018-12-27T17:49:12.961Z,27.70
2018-12-27T17:51:53.100Z,24.70
2018-12-27T17:54:33.182Z,23.73
2018-12-27T17:57:13.294Z,22.50
2018-12-27T17:59:53.174Z,22.73
2018-12-27T18:02:34.390Z,24.07
2018-12-27T18:05:14.579Z,22.37
2018-12-27T18:07:54.510Z,23.35
2018-12-27T18:10:34.633Z,24.45
2018-12-27T18:13:14.521Z,24.98
2018-12-27T18:15:54.819Z,26.85
2018-12-27T18:18:34.601Z,23.73
2018-12-27T18:21:14.771Z,24.15
2018-12-27T18:23:54.730Z,25.85
2018-12-27T18:26:34.986Z,25.48
2018-12-27T18:29:14.918Z,24.80
2018-12-27T18:31:54.946Z,24.43
2018-12-27T18:34:34.981Z,24.40
2018-12-27T18:37:15.065Z,24.77
2018-12-27T18:39:55.359Z,23.95
2018-12-27T18:48:32.067Z,26.07
2018-12-27T18:51:12.097Z,23.62
2018-12-27T18:53:52.087Z,24.45
2018-12-27T18:56:32.030Z,25.45
2018-12-27T18:59:12.324Z,26.17
2018-12-27T19:01:52.256Z,23.67
2018-12-27T19:04:32.636Z,25.00
2018-12-27T19:07:12.483Z,25.08
2018-12-27T19:09:52.414Z,23.18
2018-12-27T19:12:32.267Z,25.72
2018-12-27T19:15:12.352Z,24.25
2018-12-27T19:17:52.311Z,25.50
2018-12-27T19:20:32.595Z,25.77
2018-12-27T19:23:12.503Z,26.30
2018-12-27T19:25:52.352Z,25.35
2018-12-27T19:28:32.438Z,24.32
2018-12-27T19:31:12.744Z,24.65
2018-12-27T19:33:52.867Z,38.45
2018-12-27T19:36:33.018Z,35.63
2018-12-27T19:39:13.136Z,34.33
2018-12-27T19:41:52.973Z,33.53
2018-12-27T19:44:33.065Z,31.30
2018-12-27T19:47:13.112Z,29.60
2018-12-27T19:49:53.358Z,29.65
2018-12-27T19:52:33.117Z,31.52
2018-12-27T19:55:13.184Z,29.15
2018-12-27T19:57:53.101Z,27.93
2018-12-27T20:00:33.217Z,26.15
2018-12-27T20:03:13.078Z,25.65
2018-12-27T20:05:53.114Z,25.90
2018-12-27T20:08:33.054Z,26.82
2018-12-27T20:11:13.188Z,25.45
2018-12-27T20:13:53.186Z,23.55
2018-12-27T20:16:33.262Z,25.75
2018-12-27T20:19:13.265Z,25.97
2018-12-27T20:21:53.489Z,25.85
2018-12-27T20:24:33.730Z,24.90
2018-12-27T20:27:13.620Z,25.08
2018-12-27T20:29:53.583Z,23.35
2018-12-27T20:32:33.597Z,24.60
2018-12-27T20:35:13.662Z,25.12
2018-12-27T20:37:53.592Z,24.95
2018-12-27T20:40:33.573Z,24.75
2018-12-27T20:43:13.562Z,26.35
2018-12-27T20:45:53.752Z,25.48
2018-12-27T20:51:34.872Z,26.33
2018-12-27T20:54:14.740Z,26.07
2018-12-27T20:56:54.855Z,28.60
2018-12-27T20:59:35.277Z,32.00
2018-12-27T21:02:15.204Z,30.45
2018-12-27T21:04:55.232Z,30.20
2018-12-27T21:07:35.220Z,29.90
2018-12-27T21:10:15.494Z,30.25
2018-12-27T21:12:55.537Z,30.08
2018-12-27T21:15:35.671Z,30.90
2018-12-27T21:21:11.966Z,29.60
2018-12-27T21:23:51.966Z,28.15
2018-12-27T21:26:32.210Z,27.85
2018-12-27T21:29:12.342Z,26.45
2018-12-27T21:31:52.417Z,26.57
2018-12-27T21:34:32.526Z,26.55
2018-12-27T21:37:12.841Z,26.87
2018-12-27T21:39:52.544Z,27.75
2018-12-27T21:42:32.538Z,28.98
2018-12-27T21:45:12.679Z,30.05
2018-12-27T21:47:52.564Z,27.80
2018-12-27T21:50:32.623Z,28.95
2018-12-27T21:53:12.588Z,26.25
2018-12-27T21:55:52.577Z,29.60
2018-12-27T21:58:32.690Z,28.00
2018-12-27T22:01:12.792Z,29.90
2018-12-27T22:03:52.976Z,28.12
2018-12-27T22:06:32.991Z,25.82
2018-12-27T22:09:13.026Z,27.30
2018-12-27T22:11:53.291Z,29.25
2018-12-27T22:14:33.272Z,27.37
2018-12-27T22:17:13.254Z,28.23
2018-12-27T22:19:53.173Z,28.50
2018-12-27T22:22:33.468Z,25.45
2018-12-27T22:25:13.448Z,27.73
2018-12-27T22:27:53.434Z,27.75
2018-12-27T22:30:33.465Z,28.77
2018-12-27T22:33:13.590Z,26.65
2018-12-27T22:35:53.548Z,28.32
2018-12-27T22:38:35.692Z,28.35
2018-12-27T22:41:15.777Z,27.05
2018-12-27T22:43:55.372Z,26.93
2018-12-27T22:46:35.600Z,26.90
2018-12-27T22:49:15.652Z,27.02
2018-12-27T22:51:55.718Z,26.02
2018-12-27T22:54:35.868Z,28.07
2018-12-27T22:57:15.829Z,28.00
2018-12-27T22:59:55.818Z,25.27
2018-12-27T23:02:35.721Z,29.07
2018-12-27T23:05:16.041Z,25.55
2018-12-27T23:07:55.955Z,28.47
2018-12-27T23:10:36.315Z,26.70
2018-12-27T23:13:16.316Z,27.75
2018-12-27T23:15:56.462Z,28.05
2018-12-27T23:18:36.653Z,26.65
2018-12-27T23:21:16.857Z,29.18
2018-12-27T23:23:57.106Z,27.65
2018-12-27T23:26:37.332Z,27.95
2018-12-27T23:29:17.417Z,28.45
2018-12-27T23:31:57.509Z,28.20
2018-12-27T23:34:37.529Z,28.23
2018-12-27T23:37:17.752Z,30.45
2018-12-27T23:39:57.812Z,30.12
2018-12-27T23:42:37.801Z,27.95
2018-12-27T23:45:18.037Z,30.30
2018-12-27T23:47:58.009Z,29.87
2018-12-27T23:50:38.241Z,28.05
2018-12-27T23:53:18.468Z,29.23
2018-12-27T23:55:58.196Z,27.85
2018-12-27T23:58:38.220Z,27.77
